sensor_id;sensor_type;location;lat;lon;timestamp;pressure;altitude;pressure_sealevel;temperature;humidity
39769;BME280;38939;47.824;14.642;2023-02-22T00:00:22;96968.16;;;6.52;73.68
39769;BME280;38939;47.824;14.642;2023-02-22T00:01:29;96971.53;;;6.52;74.15
39769;BME280;38939;47.824;14.642;2023-02-22T00:02:44;96968.94;;;6.52;74.41
39769;BME280;38939;47.824;14.642;2023-02-22T00:03:49;96963.34;;;6.49;74.45
39769;BME280;38939;47.824;14.642;2023-02-22T00:04:52;96968.31;;;6.50;74.51
39769;BME280;38939;47.824;14.642;2023-02-22T00:05:55;96968.94;;;6.52;73.67
39769;BME280;38939;47.824;14.642;2023-02-22T00:06:58;96968.94;;;6.52;73.93
39769;BME280;38939;47.824;14.642;2023-02-22T00:08:01;96970.75;;;6.52;74.14
39769;BME280;38939;47.824;14.642;2023-02-22T00:09:03;96962.50;;;6.48;74.29
39769;BME280;38939;47.824;14.642;2023-02-22T00:10:05;96968.22;;;6.44;74.78
39769;BME280;38939;47.824;14.642;2023-02-22T00:11:15;96968.44;;;6.34;74.40
39769;BME280;38939;47.824;14.642;2023-02-22T00:12:17;96964.88;;;6.35;74.54
39769;BME280;38939;47.824;14.642;2023-02-22T00:13:21;96965.53;;;6.37;74.80
39769;BME280;38939;47.824;14.642;2023-02-22T00:14:25;96961.13;;;6.37;73.64
39769;BME280;38939;47.824;14.642;2023-02-22T00:15:28;96970.19;;;6.41;73.42
39769;BME280;38939;47.824;14.642;2023-02-22T00:16:29;96968.22;;;6.44;72.95
39769;BME280;38939;47.824;14.642;2023-02-22T00:17:32;96958.66;;;6.44;73.81
39769;BME280;38939;47.824;14.642;2023-02-22T00:18:34;96957.84;;;6.44;73.53
39769;BME280;38939;47.824;14.642;2023-02-22T00:19:36;96958.00;;;6.42;73.80
39769;BME280;38939;47.824;14.642;2023-02-22T00:20:39;96954.78;;;6.40;73.78
39769;BME280;38939;47.824;14.642;2023-02-22T00:21:41;96955.78;;;6.39;73.75
39769;BME280;38939;47.824;14.642;2023-02-22T00:22:45;96956.59;;;6.39;74.22
39769;BME280;38939;47.824;14.642;2023-02-22T00:23:48;96969.72;;;6.38;74.08
39769;BME280;38939;47.824;14.642;2023-02-22T00:24:50;96959.53;;;6.36;73.50
39769;BME280;38939;47.824;14.642;2023-02-22T00:25:52;96959.88;;;6.33;73.65
39769;BME280;38939;47.824;14.642;2023-02-22T00:26:55;96964.44;;;6.31;73.42
39769;BME280;38939;47.824;14.642;2023-02-22T00:27:56;96961.03;;;6.31;73.17
39769;BME280;38939;47.824;14.642;2023-02-22T00:28:58;96963.78;;;6.29;73.16
39769;BME280;38939;47.824;14.642;2023-02-22T00:30:01;96956.06;;;6.21;73.58
39769;BME280;38939;47.824;14.642;2023-02-22T00:31:03;96960.47;;;6.20;73.38
39769;BME280;38939;47.824;14.642;2023-02-22T00:32:07;96962.84;;;6.22;73.38
39769;BME280;38939;47.824;14.642;2023-02-22T00:33:10;96961.91;;;6.23;73.46
39769;BME280;38939;47.824;14.642;2023-02-22T00:34:12;96963.53;;;6.16;73.60
39769;BME280;38939;47.824;14.642;2023-02-22T00:35:15;96965.41;;;6.07;74.29
39769;BME280;38939;47.824;14.642;2023-02-22T00:36:18;96963.97;;;6.05;73.63
39769;BME280;38939;47.824;14.642;2023-02-22T00:37:20;96959.94;;;6.02;73.59
39769;BME280;38939;47.824;14.642;2023-02-22T00:38:22;96968.66;;;6.01;74.00
39769;BME280;38939;47.824;14.642;2023-02-22T00:39:24;96965.13;;;6.02;73.68
39769;BME280;38939;47.824;14.642;2023-02-22T00:40:30;96968.03;;;5.99;74.27
39769;BME280;38939;47.824;14.642;2023-02-22T00:41:33;96966.09;;;5.93;74.63
39769;BME280;38939;47.824;14.642;2023-02-22T00:42:35;96962.72;;;5.92;74.34
39769;BME280;38939;47.824;14.642;2023-02-22T00:43:37;96966.41;;;5.90;74.57
39769;BME280;38939;47.824;14.642;2023-02-22T00:44:39;96965.63;;;5.89;73.96
39769;BME280;38939;47.824;14.642;2023-02-22T00:45:41;96964.81;;;5.89;74.68
39769;BME280;38939;47.824;14.642;2023-02-22T00:46:43;96963.41;;;5.86;73.85
39769;BME280;38939;47.824;14.642;2023-02-22T00:47:45;96962.56;;;5.86;74.11
39769;BME280;38939;47.824;14.642;2023-02-22T00:48:47;96957.38;;;5.86;74.44
39769;BME280;38939;47.824;14.642;2023-02-22T00:49:49;96967.75;;;5.86;74.45
39769;BME280;38939;47.824;14.642;2023-02-22T00:50:51;96969.53;;;5.85;74.16
39769;BME280;38939;47.824;14.642;2023-02-22T00:51:56;96970.06;;;5.80;74.89
39769;BME280;38939;47.824;14.642;2023-02-22T00:52:58;96963.44;;;5.78;74.62
39769;BME280;38939;47.824;14.642;2023-02-22T00:54:01;96963.88;;;5.81;73.70
39769;BME280;38939;47.824;14.642;2023-02-22T00:55:03;96966.16;;;5.85;73.76
39769;BME280;38939;47.824;14.642;2023-02-22T00:56:06;96965.34;;;5.84;73.65
39769;BME280;38939;47.824;14.642;2023-02-22T00:57:08;96960.97;;;5.85;73.79
39769;BME280;38939;47.824;14.642;2023-02-22T00:58:10;96966.81;;;5.78;74.62
39769;BME280;38939;47.824;14.642;2023-02-22T00:59:13;96962.16;;;5.74;74.96
39769;BME280;38939;47.824;14.642;2023-02-22T01:00:25;96960.38;;;5.74;75.00
39769;BME280;38939;47.824;14.642;2023-02-22T01:01:27;96961.69;;;5.70;75.88
39769;BME280;38939;47.824;14.642;2023-02-22T01:02:29;96959.09;;;5.70;75.65
39769;BME280;38939;47.824;14.642;2023-02-22T01:03:31;96952.94;;;5.71;75.31
39769;BME280;38939;47.824;14.642;2023-02-22T01:04:33;96960.38;;;5.74;75.23
39769;BME280;38939;47.824;14.642;2023-02-22T01:05:35;96956.78;;;5.75;74.98
39769;BME280;38939;47.824;14.642;2023-02-22T01:06:39;96960.03;;;5.77;75.00
39769;BME280;38939;47.824;14.642;2023-02-22T01:07:41;96954.03;;;5.77;75.27
39769;BME280;38939;47.824;14.642;2023-02-22T01:08:43;96957.47;;;5.69;74.95
39769;BME280;38939;47.824;14.642;2023-02-22T01:09:46;96953.91;;;5.70;74.75
39769;BME280;38939;47.824;14.642;2023-02-22T01:10:48;96964.91;;;5.72;75.12
39769;BME280;38939;47.824;14.642;2023-02-22T01:11:53;96954.41;;;5.74;74.99
39769;BME280;38939;47.824;14.642;2023-02-22T01:12:59;96955.84;;;5.76;74.43
39769;BME280;38939;47.824;14.642;2023-02-22T01:14:01;96955.53;;;5.71;74.69
39769;BME280;38939;47.824;14.642;2023-02-22T01:15:03;96957.88;;;5.58;75.17
39769;BME280;38939;47.824;14.642;2023-02-22T01:16:06;96960.78;;;5.55;75.68
39769;BME280;38939;47.824;14.642;2023-02-22T01:17:11;96957.91;;;5.50;75.87
39769;BME280;38939;47.824;14.642;2023-02-22T01:18:13;96952.72;;;5.50;75.93
39769;BME280;38939;47.824;14.642;2023-02-22T01:19:17;96955.94;;;5.52;75.03
39769;BME280;38939;47.824;14.642;2023-02-22T01:20:20;96957.22;;;5.56;74.90
39769;BME280;38939;47.824;14.642;2023-02-22T01:21:26;96962.06;;;5.59;75.27
39769;BME280;38939;47.824;14.642;2023-02-22T01:22:28;96958.81;;;5.57;75.66
39769;BME280;38939;47.824;14.642;2023-02-22T01:23:30;96951.41;;;5.54;74.88
39769;BME280;38939;47.824;14.642;2023-02-22T01:24:32;96959.06;;;5.39;75.58
39769;BME280;38939;47.824;14.642;2023-02-22T01:25:34;96951.81;;;5.34;75.32
39769;BME280;38939;47.824;14.642;2023-02-22T01:26:36;96954.06;;;5.37;75.52
39769;BME280;38939;47.824;14.642;2023-02-22T01:27:38;96954.72;;;5.39;75.60
39769;BME280;38939;47.824;14.642;2023-02-22T01:28:40;96958.09;;;5.40;75.94
39769;BME280;38939;47.824;14.642;2023-02-22T01:29:42;96953.72;;;5.40;76.09
39769;BME280;38939;47.824;14.642;2023-02-22T01:30:44;96947.22;;;5.45;75.57
39769;BME280;38939;47.824;14.642;2023-02-22T01:31:53;96953.03;;;5.47;75.45
39769;BME280;38939;47.824;14.642;2023-02-22T01:32:56;96952.88;;;5.48;75.11
39769;BME280;38939;47.824;14.642;2023-02-22T01:33:58;96950.13;;;5.50;74.83
39769;BME280;38939;47.824;14.642;2023-02-22T01:35:00;96950.31;;;5.48;74.89
39769;BME280;38939;47.824;14.642;2023-02-22T01:36:05;96948.91;;;5.37;75.06
39769;BME280;38939;47.824;14.642;2023-02-22T01:37:11;96952.78;;;5.33;75.43
39769;BME280;38939;47.824;14.642;2023-02-22T01:38:13;96945.66;;;5.35;75.38
39769;BME280;38939;47.824;14.642;2023-02-22T01:39:15;96948.25;;;5.35;75.24
39769;BME280;38939;47.824;14.642;2023-02-22T01:40:19;96951.47;;;5.37;74.78
39769;BME280;38939;47.824;14.642;2023-02-22T01:41:22;96945.47;;;5.37;75.42
39769;BME280;38939;47.824;14.642;2023-02-22T01:42:24;96942.28;;;5.27;75.70
39769;BME280;38939;47.824;14.642;2023-02-22T01:43:30;96943.13;;;5.27;75.67
39769;BME280;38939;47.824;14.642;2023-02-22T01:44:36;96946.03;;;5.24;75.76
39769;BME280;38939;47.824;14.642;2023-02-22T01:45:43;96949.13;;;5.19;76.20
39769;BME280;38939;47.824;14.642;2023-02-22T01:46:45;96947.81;;;5.24;76.24
39769;BME280;38939;47.824;14.642;2023-02-22T01:47:47;96942.94;;;5.20;76.23
39769;BME280;38939;47.824;14.642;2023-02-22T01:48:51;96944.75;;;5.20;75.81
39769;BME280;38939;47.824;14.642;2023-02-22T01:49:54;96935.84;;;5.22;75.80
39769;BME280;38939;47.824;14.642;2023-02-22T01:52:38;96937.59;;;5.30;74.91
39769;BME280;38939;47.824;14.642;2023-02-22T01:54:03;96941.63;;;5.33;74.61
39769;BME280;38939;47.824;14.642;2023-02-22T01:55:06;96935.16;;;5.29;75.41
39769;BME280;38939;47.824;14.642;2023-02-22T01:56:08;96935.16;;;5.29;74.95
39769;BME280;38939;47.824;14.642;2023-02-22T01:57:12;96944.72;;;5.28;74.97
39769;BME280;38939;47.824;14.642;2023-02-22T01:58:16;96947.31;;;5.20;74.99
39769;BME280;38939;47.824;14.642;2023-02-22T01:59:19;96939.94;;;5.00;75.02
39769;BME280;38939;47.824;14.642;2023-02-22T02:00:22;96938.66;;;4.96;75.48
39769;BME280;38939;47.824;14.642;2023-02-22T02:01:28;96944.16;;;5.01;75.00
39769;BME280;38939;47.824;14.642;2023-02-22T02:02:30;96936.69;;;5.07;74.69
39769;BME280;38939;47.824;14.642;2023-02-22T02:03:32;96943.13;;;5.11;74.76
39769;BME280;38939;47.824;14.642;2023-02-22T02:04:36;96935.88;;;5.14;74.65
39769;BME280;38939;47.824;14.642;2023-02-22T02:05:38;96936.50;;;5.16;74.77
39769;BME280;38939;47.824;14.642;2023-02-22T02:06:40;96939.72;;;5.18;74.16
39769;BME280;38939;47.824;14.642;2023-02-22T02:07:43;96931.16;;;5.18;74.76
39769;BME280;38939;47.824;14.642;2023-02-22T02:08:49;96935.69;;;5.16;73.94
39769;BME280;38939;47.824;14.642;2023-02-22T02:09:57;96935.69;;;5.16;74.17
39769;BME280;38939;47.824;14.642;2023-02-22T02:10:59;96934.56;;;5.18;74.04
39769;BME280;38939;47.824;14.642;2023-02-22T02:12:02;96936.66;;;5.15;74.74
39769;BME280;38939;47.824;14.642;2023-02-22T02:13:07;96930.84;;;5.13;75.16
39769;BME280;38939;47.824;14.642;2023-02-22T02:14:09;96930.84;;;5.13;74.73
39769;BME280;38939;47.824;14.642;2023-02-22T02:15:28;96930.69;;;5.14;74.51
39769;BME280;38939;47.824;14.642;2023-02-22T02:16:41;96932.13;;;5.17;74.63
39769;BME280;38939;47.824;14.642;2023-02-22T02:17:43;96932.97;;;5.17;74.49
39769;BME280;38939;47.824;14.642;2023-02-22T02:18:45;96926.97;;;5.17;74.47
39769;BME280;38939;47.824;14.642;2023-02-22T02:19:54;96924.22;;;5.18;74.50
39769;BME280;38939;47.824;14.642;2023-02-22T02:21:37;96933.75;;;5.18;74.42
39769;BME280;38939;47.824;14.642;2023-02-22T02:22:46;96926.00;;;5.18;74.35
39769;BME280;38939;47.824;14.642;2023-02-22T02:27:39;96919.56;;;5.06;74.16
39769;BME280;38939;47.824;14.642;2023-02-22T02:31:18;96917.63;;;5.08;73.78
39769;BME280;38939;47.824;14.642;2023-02-22T02:32:26;96916.00;;;5.07;73.99
39769;BME280;38939;47.824;14.642;2023-02-22T02:33:32;96919.56;;;5.06;74.41
39769;BME280;38939;47.824;14.642;2023-02-22T02:36:46;96920.72;;;5.03;73.99
39769;BME280;38939;47.824;14.642;2023-02-22T02:37:56;96924.25;;;5.02;74.09
39769;BME280;38939;47.824;14.642;2023-02-22T02:39:09;96917.66;;;4.99;74.67
39769;BME280;38939;47.824;14.642;2023-02-22T02:41:24;96908.97;;;4.76;76.08
39769;BME280;38939;47.824;14.642;2023-02-22T02:42:28;96915.94;;;4.75;75.90
39769;BME280;38939;47.824;14.642;2023-02-22T02:43:41;96920.75;;;4.78;75.79
39769;BME280;38939;47.824;14.642;2023-02-22T02:44:46;96914.31;;;4.74;75.59
39769;BME280;38939;47.824;14.642;2023-02-22T02:46:10;96914.81;;;4.70;75.64
39769;BME280;38939;47.824;14.642;2023-02-22T02:47:15;96913.03;;;4.70;75.45
39769;BME280;38939;47.824;14.642;2023-02-22T02:48:20;96915.63;;;4.62;75.76
39769;BME280;38939;47.824;14.642;2023-02-22T02:49:26;96912.06;;;4.63;75.84
39769;BME280;38939;47.824;14.642;2023-02-22T02:50:33;96910.78;;;4.67;75.59
39769;BME280;38939;47.824;14.642;2023-02-22T02:51:39;96912.84;;;4.72;74.90
39769;BME280;38939;47.824;14.642;2023-02-22T02:52:42;96916.72;;;4.76;74.78
39769;BME280;38939;47.824;14.642;2023-02-22T02:53:46;96917.53;;;4.76;74.78
39769;BME280;38939;47.824;14.642;2023-02-22T02:54:49;96915.94;;;4.75;75.22
39769;BME280;38939;47.824;14.642;2023-02-22T02:55:52;96911.06;;;4.72;75.53
39769;BME280;38939;47.824;14.642;2023-02-22T02:56:54;96908.34;;;4.74;75.34
39769;BME280;38939;47.824;14.642;2023-02-22T02:57:56;96907.38;;;4.75;75.77
39769;BME280;38939;47.824;14.642;2023-02-22T02:59:00;96907.38;;;4.75;75.42
39769;BME280;38939;47.824;14.642;2023-02-22T03:00:02;96907.41;;;4.67;76.58
39769;BME280;38939;47.824;14.642;2023-02-22T03:02:00;96911.25;;;4.54;77.09
39769;BME280;38939;47.824;14.642;2023-02-22T03:04:04;96900.78;;;4.39;77.96
39769;BME280;38939;47.824;14.642;2023-02-22T03:05:32;96899.66;;;4.34;78.48
39769;BME280;38939;47.824;14.642;2023-02-22T03:06:49;96901.13;;;4.36;78.36
39769;BME280;38939;47.824;14.642;2023-02-22T03:09:07;96903.06;;;4.43;77.54
39769;BME280;38939;47.824;14.642;2023-02-22T03:11:20;96899.81;;;4.49;77.22
39769;BME280;38939;47.824;14.642;2023-02-22T03:12:31;96895.78;;;4.38;76.57
39769;BME280;38939;47.824;14.642;2023-02-22T03:17:17;96900.94;;;4.46;76.06
39769;BME280;38939;47.824;14.642;2023-02-22T03:18:39;96899.19;;;4.47;76.36
39769;BME280;38939;47.824;14.642;2023-02-22T03:19:48;96899.97;;;4.47;76.02
39769;BME280;38939;47.824;14.642;2023-02-22T03:20:54;96900.28;;;4.44;76.00
39769;BME280;38939;47.824;14.642;2023-02-22T03:24:47;96897.72;;;4.44;75.52
39769;BME280;38939;47.824;14.642;2023-02-22T03:25:55;96890.78;;;4.45;75.80
39769;BME280;38939;47.824;14.642;2023-02-22T03:27:03;96895.31;;;4.43;76.46
39769;BME280;38939;47.824;14.642;2023-02-22T03:28:10;96894.81;;;4.39;76.51
39769;BME280;38939;47.824;14.642;2023-02-22T03:29:14;96887.06;;;4.39;76.01
39769;BME280;38939;47.824;14.642;2023-02-22T03:30:21;96893.53;;;4.43;75.82
39769;BME280;38939;47.824;14.642;2023-02-22T03:31:28;96886.41;;;4.45;75.87
39769;BME280;38939;47.824;14.642;2023-02-22T03:32:33;96891.25;;;4.48;75.73
39769;BME280;38939;47.824;14.642;2023-02-22T03:34:42;96890.28;;;4.49;75.99
39769;BME280;38939;47.824;14.642;2023-02-22T03:35:51;96885.28;;;4.48;76.00
39769;BME280;38939;47.824;14.642;2023-02-22T03:37:07;96889.31;;;4.50;75.62
39769;BME280;38939;47.824;14.642;2023-02-22T03:38:15;96893.69;;;4.50;75.73
39769;BME280;38939;47.824;14.642;2023-02-22T03:39:17;96891.09;;;4.50;75.73
39769;BME280;38939;47.824;14.642;2023-02-22T03:40:30;96889.97;;;4.44;76.04
39769;BME280;38939;47.824;14.642;2023-02-22T03:41:34;96886.28;;;4.38;75.94
39769;BME280;38939;47.824;14.642;2023-02-22T03:42:47;96891.75;;;4.35;76.52
39769;BME280;38939;47.824;14.642;2023-02-22T03:44:12;96891.75;;;4.35;76.40
39769;BME280;38939;47.824;14.642;2023-02-22T03:45:12;96882.88;;;4.30;76.40
39769;BME280;38939;47.824;14.642;2023-02-22T03:46:16;96888.03;;;4.30;76.31
39769;BME280;38939;47.824;14.642;2023-02-22T03:47:21;96892.09;;;4.32;76.09
39769;BME280;38939;47.824;14.642;2023-02-22T03:48:37;96889.16;;;4.35;75.76
39769;BME280;38939;47.824;14.642;2023-02-22T03:49:53;96884.00;;;4.35;75.58
39769;BME280;38939;47.824;14.642;2023-02-22T03:50:56;96884.66;;;4.37;75.59
39769;BME280;38939;47.824;14.642;2023-02-22T03:51:59;96889.00;;;4.37;75.58
39769;BME280;38939;47.824;14.642;2023-02-22T03:53:02;96882.72;;;4.39;75.70
39769;BME280;38939;47.824;14.642;2023-02-22T03:54:04;96892.09;;;4.40;75.52
39769;BME280;38939;47.824;14.642;2023-02-22T03:55:07;96892.88;;;4.41;75.49
39769;BME280;38939;47.824;14.642;2023-02-22T03:56:34;96891.09;;;4.41;75.32
39769;BME280;38939;47.824;14.642;2023-02-22T03:57:37;96889.00;;;4.37;75.26
39769;BME280;38939;47.824;14.642;2023-02-22T03:58:40;96892.75;;;4.34;75.01
39769;BME280;38939;47.824;14.642;2023-02-22T03:59:44;96892.25;;;4.31;75.00
39769;BME280;38939;47.824;14.642;2023-02-22T04:00:46;96889.66;;;4.31;74.90
39769;BME280;38939;47.824;14.642;2023-02-22T04:01:54;96887.41;;;4.28;75.21
39769;BME280;38939;47.824;14.642;2023-02-22T04:02:57;96890.97;;;4.27;75.47
39769;BME280;38939;47.824;14.642;2023-02-22T04:04:00;96882.22;;;4.28;75.11
39769;BME280;38939;47.824;14.642;2023-02-22T04:05:02;96891.75;;;4.27;75.52
39769;BME280;38939;47.824;14.642;2023-02-22T04:06:04;96885.94;;;4.25;75.44
39769;BME280;38939;47.824;14.642;2023-02-22T04:07:05;96889.97;;;4.28;75.58
39769;BME280;38939;47.824;14.642;2023-02-22T04:08:07;96888.03;;;4.30;75.49
39769;BME280;38939;47.824;14.642;2023-02-22T04:09:09;96892.88;;;4.33;75.61
39769;BME280;38939;47.824;14.642;2023-02-22T04:10:12;96894.34;;;4.35;75.35
39769;BME280;38939;47.824;14.642;2023-02-22T04:11:14;96891.91;;;4.34;75.32
39769;BME280;38939;47.824;14.642;2023-02-22T04:12:16;96896.13;;;4.35;75.62
39769;BME280;38939;47.824;14.642;2023-02-22T04:13:18;96890.16;;;4.34;75.18
39769;BME280;38939;47.824;14.642;2023-02-22T04:14:20;96892.88;;;4.33;75.28
39769;BME280;38939;47.824;14.642;2023-02-22T04:15:24;96893.19;;;4.30;75.46
39769;BME280;38939;47.824;14.642;2023-02-22T04:16:26;96892.41;;;4.29;75.50
39769;BME280;38939;47.824;14.642;2023-02-22T04:17:28;96889.66;;;4.31;75.30
39769;BME280;38939;47.824;14.642;2023-02-22T04:18:30;96891.25;;;4.32;75.12
39769;BME280;38939;47.824;14.642;2023-02-22T04:19:32;96891.09;;;4.33;75.17
39769;BME280;38939;47.824;14.642;2023-02-22T04:20:34;96890.16;;;4.34;75.29
39769;BME280;38939;47.824;14.642;2023-02-22T04:21:35;96892.25;;;4.31;76.12
39769;BME280;38939;47.824;14.642;2023-02-22T04:22:38;96890.31;;;4.16;76.82
39769;BME280;38939;47.824;14.642;2023-02-22T04:23:40;96891.91;;;4.01;77.11
39769;BME280;38939;47.824;14.642;2023-02-22T04:24:42;96884.81;;;3.95;77.07
39769;BME280;38939;47.824;14.642;2023-02-22T04:25:44;96881.59;;;3.93;77.38
39769;BME280;38939;47.824;14.642;2023-02-22T04:26:45;96885.47;;;3.97;77.40
39769;BME280;38939;47.824;14.642;2023-02-22T04:27:48;96889.81;;;3.96;77.54
39769;BME280;38939;47.824;14.642;2023-02-22T04:28:50;96884.81;;;3.95;77.50
39769;BME280;38939;47.824;14.642;2023-02-22T04:29:52;96875.94;;;3.97;77.41
39769;BME280;38939;47.824;14.642;2023-02-22T04:30:54;96889.97;;;4.03;77.12
39769;BME280;38939;47.824;14.642;2023-02-22T04:31:56;96881.94;;;4.06;77.14
39769;BME280;38939;47.824;14.642;2023-02-22T04:32:58;96878.22;;;4.09;76.86
39769;BME280;38939;47.824;14.642;2023-02-22T04:34:00;96887.41;;;4.11;76.85
39769;BME280;38939;47.824;14.642;2023-02-22T04:35:03;96884.50;;;4.14;76.66
39769;BME280;38939;47.824;14.642;2023-02-22T04:36:05;96882.56;;;4.16;76.48
39769;BME280;38939;47.824;14.642;2023-02-22T04:37:08;96881.28;;;4.12;76.63
39769;BME280;38939;47.824;14.642;2023-02-22T04:38:11;96885.16;;;4.00;77.20
39769;BME280;38939;47.824;14.642;2023-02-22T04:39:12;96883.53;;;3.99;77.18
39769;BME280;38939;47.824;14.642;2023-02-22T04:40:15;96873.69;;;3.94;77.82
39769;BME280;38939;47.824;14.642;2023-02-22T04:41:17;96869.16;;;3.88;78.18
39769;BME280;38939;47.824;14.642;2023-02-22T04:42:19;96870.75;;;3.81;78.65
39769;BME280;38939;47.824;14.642;2023-02-22T04:43:21;96867.69;;;3.77;78.95
39769;BME280;38939;47.824;14.642;2023-02-22T04:44:23;96872.06;;;3.77;78.57
39769;BME280;38939;47.824;14.642;2023-02-22T04:45:25;96870.91;;;3.79;78.38
39769;BME280;38939;47.824;14.642;2023-02-22T04:46:27;96867.69;;;3.86;78.12
39769;BME280;38939;47.824;14.642;2023-02-22T04:47:29;96865.59;;;3.89;77.86
39769;BME280;38939;47.824;14.642;2023-02-22T04:48:31;96872.06;;;3.85;77.80
39769;BME280;38939;47.824;14.642;2023-02-22T04:49:33;96862.38;;;3.87;77.70
39769;BME280;38939;47.824;14.642;2023-02-22T04:50:37;96866.25;;;3.91;77.11
39769;BME280;38939;47.824;14.642;2023-02-22T04:51:41;96865.94;;;3.94;77.57
39769;BME280;38939;47.824;14.642;2023-02-22T04:52:43;96866.59;;;3.96;77.08
39769;BME280;38939;47.824;14.642;2023-02-22T04:53:45;96861.44;;;3.96;77.42
39769;BME280;38939;47.824;14.642;2023-02-22T04:54:47;96861.75;;;3.93;77.36
39769;BME280;38939;47.824;14.642;2023-02-22T04:55:49;96865.94;;;3.94;77.64
39769;BME280;38939;47.824;14.642;2023-02-22T04:56:51;96865.47;;;3.91;77.72
39769;BME280;38939;47.824;14.642;2023-02-22T04:57:53;96862.53;;;3.86;77.31
39769;BME280;38939;47.824;14.642;2023-02-22T04:58:55;96862.38;;;3.87;77.00
39769;BME280;38939;47.824;14.642;2023-02-22T04:59:57;96857.22;;;3.87;77.34
39769;BME280;38939;47.824;14.642;2023-02-22T05:00:59;96862.06;;;3.90;77.26
39769;BME280;38939;47.824;14.642;2023-02-22T05:02:01;96858.34;;;3.93;77.08
39769;BME280;38939;47.824;14.642;2023-02-22T05:03:03;96859.97;;;3.94;76.84
39769;BME280;38939;47.824;14.642;2023-02-22T05:04:05;96856.72;;;3.92;76.55
39769;BME280;38939;47.824;14.642;2023-02-22T05:05:07;96865.94;;;3.86;77.13
39769;BME280;38939;47.824;14.642;2023-02-22T05:06:09;96862.53;;;3.86;77.21
39769;BME280;38939;47.824;14.642;2023-02-22T05:07:12;96855.94;;;3.83;77.29
39769;BME280;38939;47.824;14.642;2023-02-22T05:08:14;96852.69;;;3.81;77.26
39769;BME280;38939;47.824;14.642;2023-02-22T05:09:16;96860.28;;;3.83;76.98
39769;BME280;38939;47.824;14.642;2023-02-22T05:10:18;96865.59;;;3.81;77.01
39769;BME280;38939;47.824;14.642;2023-02-22T05:11:20;96859.00;;;3.78;76.96
39769;BME280;38939;47.824;14.642;2023-02-22T05:12:23;96860.28;;;3.83;76.76
39769;BME280;38939;47.824;14.642;2023-02-22T05:13:27;96857.06;;;3.80;76.70
39769;BME280;38939;47.824;14.642;2023-02-22T05:14:29;96865.94;;;3.78;76.59
39769;BME280;38939;47.824;14.642;2023-02-22T05:15:31;96852.84;;;3.79;76.81
39769;BME280;38939;47.824;14.642;2023-02-22T05:16:33;96855.94;;;3.83;76.38
39769;BME280;38939;47.824;14.642;2023-02-22T05:17:35;96859.94;;;3.86;76.44
39769;BME280;38939;47.824;14.642;2023-02-22T05:18:37;96852.84;;;3.88;76.30
39769;BME280;38939;47.824;14.642;2023-02-22T05:19:39;96851.91;;;3.89;76.37
39769;BME280;38939;47.824;14.642;2023-02-22T05:20:42;96852.56;;;3.91;76.53
39769;BME280;38939;47.824;14.642;2023-02-22T05:21:44;96855.78;;;3.93;76.13
39769;BME280;38939;47.824;14.642;2023-02-22T05:22:46;96848.97;;;3.92;76.45
39769;BME280;38939;47.824;14.642;2023-02-22T05:23:48;96856.09;;;3.90;77.10
39769;BME280;38939;47.824;14.642;2023-02-22T05:24:50;96851.25;;;3.78;77.18
39769;BME280;38939;47.824;14.642;2023-02-22T05:25:54;96858.34;;;3.76;77.50
39769;BME280;38939;47.824;14.642;2023-02-22T05:26:56;96851.09;;;3.80;77.02
39769;BME280;38939;47.824;14.642;2023-02-22T05:28:00;96851.56;;;3.84;77.10
39769;BME280;38939;47.824;14.642;2023-02-22T05:29:02;96848.03;;;3.85;77.10
39769;BME280;38939;47.824;14.642;2023-02-22T05:30:04;96852.53;;;3.83;77.13
39769;BME280;38939;47.824;14.642;2023-02-22T05:31:06;96844.81;;;3.83;77.31
39769;BME280;38939;47.824;14.642;2023-02-22T05:32:09;96856.72;;;3.84;77.22
39769;BME280;38939;47.824;14.642;2023-02-22T05:33:12;96848.34;;;3.81;77.25
39769;BME280;38939;47.824;14.642;2023-02-22T05:34:14;96853.50;;;3.81;77.19
39769;BME280;38939;47.824;14.642;2023-02-22T05:35:17;96850.75;;;3.83;77.25
39769;BME280;38939;47.824;14.642;2023-02-22T05:36:19;96852.41;;;3.84;77.49
39769;BME280;38939;47.824;14.642;2023-02-22T05:37:21;96848.97;;;3.84;77.40
39769;BME280;38939;47.824;14.642;2023-02-22T05:38:22;96849.16;;;3.82;77.87
39769;BME280;38939;47.824;14.642;2023-02-22T05:39:24;96848.97;;;3.84;77.29
39769;BME280;38939;47.824;14.642;2023-02-22T05:40:27;96844.16;;;3.80;77.43
39769;BME280;38939;47.824;14.642;2023-02-22T05:41:29;96849.63;;;3.77;77.93
39769;BME280;38939;47.824;14.642;2023-02-22T05:42:31;96851.91;;;3.72;77.36
39769;BME280;38939;47.824;14.642;2023-02-22T05:43:33;96845.94;;;3.72;77.08
39769;BME280;38939;47.824;14.642;2023-02-22T05:44:34;96854.13;;;3.75;77.28
39769;BME280;38939;47.824;14.642;2023-02-22T05:45:36;96849.47;;;3.79;76.87
39769;BME280;38939;47.824;14.642;2023-02-22T05:46:38;96858.66;;;3.81;77.10
39769;BME280;38939;47.824;14.642;2023-02-22T05:47:40;96850.59;;;3.76;77.37
39769;BME280;38939;47.824;14.642;2023-02-22T05:48:42;96845.44;;;3.76;77.10
39769;BME280;38939;47.824;14.642;2023-02-22T05:49:44;96844.16;;;3.72;77.56
39769;BME280;38939;47.824;14.642;2023-02-22T05:50:46;96849.31;;;3.72;77.92
39769;BME280;38939;47.824;14.642;2023-02-22T05:51:50;96853.34;;;3.75;77.96
39769;BME280;38939;47.824;14.642;2023-02-22T05:52:52;96847.69;;;3.71;77.69
39769;BME280;38939;47.824;14.642;2023-02-22T05:53:54;96850.09;;;3.65;78.44
39769;BME280;38939;47.824;14.642;2023-02-22T05:54:56;96851.38;;;3.60;78.59
39769;BME280;38939;47.824;14.642;2023-02-22T05:55:58;96845.72;;;3.57;78.96
39769;BME280;38939;47.824;14.642;2023-02-22T05:57:00;96849.13;;;3.57;78.86
39769;BME280;38939;47.824;14.642;2023-02-22T05:58:03;96844.44;;;3.53;79.29
39769;BME280;38939;47.824;14.642;2023-02-22T05:59:06;96837.97;;;3.49;79.81
39769;BME280;38939;47.824;14.642;2023-02-22T06:00:08;96854.09;;;3.51;79.63
39769;BME280;38939;47.824;14.642;2023-02-22T06:01:10;96848.47;;;3.55;78.99
39769;BME280;38939;47.824;14.642;2023-02-22T06:02:13;96851.25;;;3.62;78.67